Logo AVAMET
Benvolgut visitant, si us plau, ingressa Recuperar contrasenya
AVAMET paisatges

Xixona castell

Dades diàries. Acumulats / Últims 30 dies disponibles

Data Temperatura (°C) Humitat rel. (%) Pressió rel. (hPa) Vent (km/h) Precipitació
Mínima Mitjana Màxima Amplitud
tèrmica
Mínima Mitjana Màxima Mínima Mitjana Màxima Predom. Mitjana Ràfega
màxima
Total
(mm)
Índex-n
Mínima Mitjana Màxima Mínima Mitjana Màxima n
0 a 1
P0 max
mm 5'
Dades mensuals acumulades fins l'últim dia disponible
02/2020 5,4 11,0 16,2 14,1 11,9 17,5 23,9 18,5 0 62 82 1.020 1.025 1.030   4,5 90,1 0,6
Dades anuals acumulades fins l'últim dia disponible
2020 1,6 8,2 16,2 11,3 8,2 14,9 23,9 22,3 0 64 86 1.011 1.024 1.033   8,5 123,9 56,4
Últims 30 dies disponibles
16-02-2020 9,9     13,6     16,9 7,0 62 70 80 1.025 1.026 1.027 NW 3,1 14,5 0,0
15-02-2020 9,8     12,6     15,9 6,1 62 71 79 1.023 1.025 1.027 NW 3,2 17,7 0,0
14-02-2020 10,3     13,7     17,4 7,1 55 63 71 1.023 1.024 1.025 NW 4,3 19,3 0,0
13-02-2020 9,1     13,6     17,3 8,2 0 63 82 1.021 1.022 1.023 NW 6,3 48,3 0,0
12-02-2020 10,7     13,9     18,5 7,8 52 70 80 1.021 1.022 1.023 NW 3,9 24,1 0,0
11-02-2020 14,4     17,7     21,2 6,8 0 52 67 1.020 1.022 1.026 NW 4,5 38,6 0,0
10-02-2020 13,2     17,0     19,6 6,4 0 52 62 1.025 1.027 1.030 NW 7,9 46,7 0,0
09-02-2020 9,6     12,9     14,8 5,2 0 67 76 1.025 1.028 1.030 NW 1,1 27,4 0,0
08-02-2020 7,0     11,4     15,7 8,7 0 63 81 1.023 1.025 1.027 NW 3,5 30,6 0,0
07-02-2020     8,7     12,5 12,5 67 73 78 1.022 1.024 1.025 NW 2,4 12,9 0,0
06-02-2020 5,4     8,6     12,5 7,1 0 69 77 1.024 1.026 1.028 NW 2,9 16,1 0,0
05-02-2020 7,7     9,6     11,9 4,2 70 76 81 1.025 1.027 1.028 NW 1,9 25,7 0,4
04-02-2020 16,2     19,9     23,9 7,7 0 34 49 1.021 1.024 1.027 NW 5,8 41,8 0,0
03-02-2020 15,3     18,5     22,0 6,7 0 47 64 1.026 1.027 1.029 NW 1,9 17,7 0,0
02-02-2020 14,3     17,3     20,8 6,5 0 59 68 1.026 1.026 1.028 NW 2,6 27,4 0,0
01-02-2020 12,8     16,1     19,1 6,3 0 63 73 1.021 1.023 1.026 NW 17,1 90,1 0,2
31-01-2020 11,6     14,5     17,2 5,6 59 63 67 1.020 1.021 1.023 NO 24,0 82,1 0,0
30-01-2020     14,6     17,6 17,6 33 52 67 1.020 1.021 1.023 NW 17,9 67,6 0,0
29-01-2020 12,3     14,6     17,4 5,1 57 64 68 1.021 1.022 1.024 NW 14,6 62,8 0,0
28-01-2020 10,7     13,0     14,6 3,9 62 65 67 1.020 1.021 1.023 NW 31,2 93,3 0,0
27-01-2020 7,5     10,4     13,2 5,7 49 61 69 1.020 1.023 1.025 NW 22,0 82,1 0,0
26-01-2020 7,9     10,2     13,2 5,3 55 66 75 1.018 1.020 1.025 NW 19,2 57,9 0,0
25-01-2020 7,1     9,5     14,5 7,4 55 72 77 1.016 1.018 1.020 NW 3,5 17,7 0,0
24-01-2020 7,6     9,6     12,7 5,1 64 70 76 1.019 1.021 1.022 NW 3,9 17,7 0,0
23-01-2020 6,6     8,4     11,0 4,4 68 74 77 1.018 1.020 1.022 NW 2,7 20,9 0,0
22-01-2020 6,5     9,1     14,6 8,1 51 70 83 1.015 1.017 1.019 NW 5,3 27,4 0,2
21-01-2020 5,7     8,5     12,3 6,6 60 79 85 1.011 1.014 1.018 NW 13,8 69,2 21,8
20-01-2020 1,6     4,9     8,2 6,6 74 81 86 1.011 1.016 1.018 NW 35,2 123,9 23,2
19-01-2020 3,3     7,6     13,2 9,9 63 71 83 1.012 1.014 1.020 NW 30,1 104,6 9,4
18-01-2020 8,6     10,9     14,1 5,5 52 61 70 1.020 1.027 1.032 NW 3,1 30,6 0,0
Últims 13 mesos disponibles
01/2020 1,6 6,7 12,3 9,8 8,2 13,6 17,6 16,0 47 66 81 1.014 1.024 1.032 NW 10,5 123,9 55,8
12/2019 5,8 9,3 13,9 12,4 10,6 15,6 22,9 17,1 36 62 77 1.005 1.018 1.032 NW 13,0 133,6 32,0
11/2019 4,5 10,1 18,2 12,6 10,2 15,7 22,9 18,4 48 60 79 999 1.010 1.018 NW 23,8 112,7 32,8
10/2019 9,8 15,1 19,6 18,1 13,2 22,0 30,1 20,3 41 60 75 1.008 1.015 1.021 NW 7,7 93,3 43,2
09/2019 12,4 18,0 20,9 21,2 19,5 25,1 30,4 18,0 46 66 75 1.009 1.016 1.021 NW 7,5 83,7 38,2
08/2019 17,6 20,9 25,9 24,7 25,1 29,3 36,2 18,6 31 59 72 1.009 1.014 1.018 SSE 6,4 54,7 17,4
07/2019 18,1 20,9 23,9 25,6 26,4 30,5 36,6 18,5 29 50 73 1.005 1.012 1.018 SSE 6,9 83,7 0,2
06/2019 12,8 17,3 25,8 22,0 21,3 26,3 35,4 22,6 26 50 76 1.007 1.013 1.021 SSE 7,0 72,4 2,0
05/2019 8,5 13,0 18,3 16,9 15,4 20,8 27,0 18,5 40 61 77 1.005 1.014 1.024 SSE 6,4 96,6 4,8
04/2019 6,4 9,7 12,5 13,1 12,8 17,0 24,6 18,2 36 65 84 999 1.012 1.024 SSE 13,1 103,0 87,0
03/2019 4,4 9,1 13,6 12,9 9,9 16,9 23,5 19,1 26 52 78 1.010 1.022 1.029 NW 9,6 106,2 19,8
02/2019 1,4 7,2 13,4 11,1 9,5 15,3 22,1 20,7 23 53 75 996 1.024 1.032 NW 9,4 114,3 1,4
01/2019 2,1 6,6 10,4 9,9 8,8 13,5 18,2 16,1 30 57 78 1.003 1.018 1.030 NW 13,7 120,7 1,2
Tots els anys disponibles
2019 1,4 13,2 25,9 16,7 8,8 20,7 36,6 35,2 23 58 84 996 1.016 1.032 NW 10,3 133,6 280,0
2018 1,1 13,3 24,8 16,8 5,9 20,9 33,4 32,3 30 64 82 998 1.016 1.026 NW 10,1 119,1 312,4
2017 -0,4 13,1 25,9 16,7 4,3 20,9 34,2 34,6 9,0 123,9 219,0
2016 2,6 13,2 28,0 16,5 8,9 20,5 37,3 34,7 9,7 132,0 272,6
Temperatura (°C)
Humitat relativa (%)
Velocitat del vent i ràfega màxima (km/h)
Direcció del vent (°)
Pressió (hPa)
Precipitació (mm)
Nota sobre les dades: s'avisa a l'usuari de la provisionalitat i no oficialitat d'aquestes dades
Logo AVAMET blanc
Web allotjada a Sollutia
Llicència de Creative CommonsLa web d'AVAMET i els seus continguts estan subjectes a una llicència de
Reconeixement - No Comercial - Compartir igual
Últimes estacions:  Sorita (AVAMET), Massalavés - Ajuntament (Soci/Inforatge), Albuixech - Polígon (Inforatge), La Torre d'en Besora (Ajuntament soci), Xixona - Sogorb Barranc Blanc (Soci), Pedreguer - Patronat (Soci) - - -